Decoded Metar for KWRI (WRIGHTSTOWN in NJ, USA) (IATA:WRI) | Meteo·Mobile Aviation Weather
aviador You're here:

KWRI Decoded Metar

WRIGHTSTOWN in NJ, USA
Report Time2019-02-16 16:56:00
UTC Time2019-02-16 17:10:39
Flight Rules vfr VFR
Wind360° at 10 kt
W.Decomp.*RWY 36: 9.8 kt HW 2.1 kt RCW
RWY 06: 6.7 kt HW 7.4 kt LCW
Visibility9999 m
Phenomena:N/A
Clouds:N/A
Expected CloudBase > 4,800 ft AGL from Temp-Dew spread
CeilingNone
Temp05°C (ISA -10)
Dew Point-7°C (42% RH)
AAT-1.4°C
QNH1011 hPa
Density Alt-922 ft
Elevation135 ft
Report Wrong Elevation
Raw Report
KWRI 161656Z AUTO 36010KT 10SM CLR 05/M07 A2986 RMK AO2 SLP112
T00541075 VISNO RWY06 $=

Extra information for KWRI:More info

Metar Taf Metar & Taf Last 4 Metars F.Rules Stats Wind Profile Meteogram Temp Stats Airport Information Weather charts Add Link Nearby VenuesMetar ALERT Operation Metar Decoded Social comments

AIRNAV info for KWRI